Time;durP1;ratioP1;P1;durP2;ratioP2;P2;SDS_P1;SDS_P2;PMS_P1;PMS_P2;Temp;Humidity;BMP_temperature;BMP_pressure;BME280_temperature;BME280_humidity;BME280_pressure;Samples;Min_cycle;Max_cycle;Signal;HPM_P1;HPM_P2
2022/06/07 00:00:16;;;;;;;0.00;0.00;;;22.20;95.20;;;;;;4913739;29;20024;-70
2022/06/07 00:02:41;;;;;;;0.00;0.00;;;22.10;95.10;;;;;;4915270;29;20033;-71
2022/06/07 00:05:07;;;;;;;0.00;0.00;;;22.10;94.70;;;;;;4929669;29;20355;-72
2022/06/07 00:07:33;;;;;;;0.00;0.00;;;22.10;95.10;;;;;;4909267;29;20334;-73
2022/06/07 00:09:58;;;;;;;0.00;0.00;;;22.00;94.90;;;;;;4919915;29;20031;-81
2022/06/07 00:12:25;;;;;;;0.00;0.00;;;22.00;95.10;;;;;;4912230;29;20031;-70
2022/06/07 00:14:51;;;;;;;0.00;0.00;;;22.00;95.20;;;;;;4915403;29;20079;-71
2022/06/07 00:17:17;;;;;;;0.00;0.00;;;22.00;95.00;;;;;;4919194;29;20099;-76
2022/06/07 00:19:43;;;;;;;0.00;0.00;;;22.00;95.20;;;;;;4927116;29;20047;-71
2022/06/07 00:22:09;;;;;;;0.00;0.00;;;22.00;95.10;;;;;;4918812;29;20028;-75
2022/06/07 00:24:35;;;;;;;0.00;0.00;;;22.00;95.40;;;;;;4931262;29;20019;-71
2022/06/07 00:27:01;;;;;;;0.00;0.00;;;22.00;95.30;;;;;;4926053;29;20454;-70
2022/06/07 00:29:27;;;;;;;0.00;0.00;;;21.90;95.60;;;;;;4912204;29;20129;-71
2022/06/07 00:31:54;;;;;;;0.00;0.00;;;21.90;95.60;;;;;;4907734;29;20020;-75
2022/06/07 00:34:19;;;;;;;0.00;0.00;;;21.90;95.60;;;;;;4932255;29;20307;-71
2022/06/07 00:36:45;;;;;;;0.00;0.00;;;21.90;95.60;;;;;;4930718;29;20027;-71
2022/06/07 00:39:11;;;;;;;0.00;0.00;;;21.90;96.00;;;;;;4909849;29;20067;-71
2022/06/07 00:41:37;;;;;;;0.00;0.00;;;21.80;95.70;;;;;;4918964;29;20031;-70
2022/06/07 00:44:21;;;;;;;0.00;0.00;;;21.80;96.00;;;;;;4933326;29;20035;-72
2022/06/07 00:46:52;;;;;;;0.00;0.00;;;21.80;96.20;;;;;;4932704;29;20036;-70
2022/06/07 00:49:19;;;;;;;0.00;0.00;;;21.80;96.20;;;;;;4931404;29;20030;-75
2022/06/07 00:51:45;;;;;;;0.00;0.00;;;21.80;96.00;;;;;;4907019;29;20329;-71
2022/06/07 00:54:23;;;;;;;0.00;0.00;;;21.80;96.10;;;;;;4926349;29;20127;-70
2022/06/07 00:56:49;;;;;;;0.00;0.00;;;21.70;96.10;;;;;;4907617;29;20066;-71
2022/06/07 00:59:15;;;;;;;0.00;0.00;;;21.70;96.20;;;;;;4926585;29;20024;-76
2022/06/07 01:01:41;;;;;;;0.00;0.00;;;21.70;96.30;;;;;;4932286;29;20283;-70
2022/06/07 01:04:07;;;;;;;0.00;0.00;;;21.70;96.50;;;;;;4935736;29;20299;-75
2022/06/07 01:12:01;;;;;;;0.00;0.00;;;21.70;96.80;;;;;;4923894;29;20271;-72
2022/06/07 01:14:26;;;;;;;0.00;0.00;;;21.60;97.30;;;;;;4924554;29;20027;-70
2022/06/07 01:16:52;;;;;;;0.00;0.00;;;21.60;96.80;;;;;;4925550;29;20089;-71
2022/06/07 01:19:18;;;;;;;0.00;0.00;;;21.60;96.90;;;;;;4910931;29;20122;-70
2022/06/07 01:21:45;;;;;;;0.00;0.00;;;21.50;96.90;;;;;;4919574;29;20020;-70
2022/06/07 01:24:13;;;;;;;0.00;0.00;;;21.50;97.00;;;;;;4923467;29;20047;-70
2022/06/07 01:26:39;;;;;;;0.00;0.00;;;21.50;96.90;;;;;;4918063;29;20645;-71
2022/06/07 01:29:05;;;;;;;0.00;0.00;;;21.50;97.50;;;;;;4928923;29;20016;-71
2022/06/07 01:31:31;;;;;;;0.00;0.00;;;21.50;97.40;;;;;;4926875;29;20040;-70
2022/06/07 01:33:57;;;;;;;0.00;0.00;;;21.40;97.30;;;;;;4917575;29;20016;-70
2022/06/07 01:36:23;;;;;;;0.00;0.00;;;21.40;97.40;;;;;;4924665;29;20046;-71
2022/06/07 01:41:53;;;;;;;0.00;0.00;;;21.40;97.40;;;;;;4930236;29;20341;-74
2022/06/07 01:44:20;;;;;;;0.00;0.00;;;21.30;97.70;;;;;;4924811;29;20081;-71
2022/06/07 01:46:45;;;;;;;0.00;0.00;;;21.30;97.40;;;;;;4915797;29;20341;-70
2022/06/07 01:49:11;;;;;;;0.00;0.00;;;21.30;97.50;;;;;;4915488;29;20064;-72
2022/06/07 01:51:36;;;;;;;0.00;0.00;;;21.20;97.70;;;;;;4919552;29;20035;-70
2022/06/07 01:54:02;;;;;;;0.00;0.00;;;21.20;97.70;;;;;;4922191;29;20039;-71
2022/06/07 01:56:28;;;;;;;0.00;0.00;;;21.20;97.90;;;;;;4929156;29;20363;-70
2022/06/07 01:58:54;;;;;;;0.00;0.00;;;21.20;98.00;;;;;;4912051;29;20026;-70
2022/06/07 02:01:19;;;;;;;0.00;0.00;;;21.20;97.90;;;;;;4933238;29;20034;-77
2022/06/07 02:03:45;;;;;;;0.00;0.00;;;21.20;98.10;;;;;;4934485;29;20055;-71
2022/06/07 02:06:12;;;;;;;0.00;0.00;;;21.20;98.50;;;;;;4927666;29;20223;-76
2022/06/07 02:08:40;;;;;;;0.00;0.00;;;21.20;98.50;;;;;;4931556;29;20024;-77
2022/06/07 02:11:16;;;;;;;0.00;0.00;;;21.20;98.50;;;;;;4922107;29;20024;-70
2022/06/07 02:13:42;;;;;;;0.00;0.00;;;21.10;98.60;;;;;;4914379;29;20449;-71
2022/06/07 02:16:09;;;;;;;0.00;0.00;;;21.10;98.60;;;;;;4933998;29;20029;-71
2022/06/07 02:18:35;;;;;;;0.00;0.00;;;21.10;98.60;;;;;;4920878;29;20053;-70
2022/06/07 02:21:01;;;;;;;0.00;0.00;;;21.10;98.70;;;;;;4934344;29;20112;-71
2022/06/07 02:23:28;;;;;;;0.00;0.00;;;21.00;98.70;;;;;;4930395;29;20028;-71
2022/06/07 02:26:04;;;;;;;0.00;0.00;;;21.00;98.60;;;;;;4933508;29;20020;-75
2022/06/07 02:28:35;;;;;;;0.00;0.00;;;21.00;98.60;;;;;;4913049;29;20165;-72
2022/06/07 02:31:04;;;;;;;0.00;0.00;;;21.00;98.80;;;;;;4929744;29;20056;-71
2022/06/07 02:33:31;;;;;;;0.00;0.00;;;21.00;98.70;;;;;;4929777;29;20024;-72
2022/06/07 02:35:57;;;;;;;0.00;0.00;;;21.00;99.10;;;;;;4931951;29;20083;-75
2022/06/07 02:38:23;;;;;;;0.00;0.00;;;21.00;99.00;;;;;;4933777;29;20351;-70
2022/06/07 02:40:51;;;;;;;0.00;0.00;;;21.00;99.30;;;;;;4914828;29;20024;-74
2022/06/07 02:43:16;;;;;;;;;;;21.00;99.10;;;;;;4932996;29;20028;-71
2022/06/07 02:45:42;;;;;;;0.00;0.00;;;21.00;99.10;;;;;;4930350;29;19909;-73
2022/06/07 02:48:09;;;;;;;0.00;0.00;;;21.00;99.30;;;;;;4915682;29;20369;-70
2022/06/07 02:50:36;;;;;;;0.00;0.00;;;21.00;99.70;;;;;;4931618;29;20028;-70
2022/06/07 02:53:01;;;;;;;0.00;0.00;;;20.90;99.90;;;;;;4933961;29;20020;-70
2022/06/07 02:55:27;;;;;;;0.00;0.00;;;20.90;99.90;;;;;;4930175;29;20051;-70
2022/06/07 02:57:53;;;;;;;0.00;0.00;;;20.80;99.90;;;;;;4927493;29;20698;-70
2022/06/07 03:00:19;;;;;;;0.00;0.00;;;20.80;99.90;;;;;;4917751;29;20039;-77
2022/06/07 03:02:44;;;;;;;0.00;0.00;;;20.80;99.90;;;;;;4933218;29;20028;-70
2022/06/07 03:05:11;;;;;;;0.00;0.00;;;20.80;99.90;;;;;;4923894;29;20058;-70
2022/06/07 03:07:41;;;;;;;0.00;0.00;;;20.80;99.90;;;;;;4930798;29;20027;-71
2022/06/07 03:10:08;;;;;;;0.00;0.00;;;20.70;99.90;;;;;;4932853;29;20023;-76
2022/06/07 03:12:34;;;;;;;0.00;0.00;;;20.70;99.90;;;;;;4910490;29;20020;-72
2022/06/07 03:15:00;;;;;;;0.00;0.00;;;20.70;99.90;;;;;;4912644;29;20321;-70
2022/06/07 03:17:26;;;;;;;0.00;0.00;;;20.70;99.90;;;;;;4936018;29;20043;-70
2022/06/07 03:19:52;;;;;;;0.00;0.00;;;20.70;99.90;;;;;;4931197;29;20051;-71
2022/06/07 03:22:18;;;;;;;0.00;0.00;;;20.70;99.90;;;;;;4929755;29;20094;-70
2022/06/07 03:24:44;;;;;;;0.00;0.00;;;20.60;99.90;;;;;;4912507;29;20338;-71
2022/06/07 03:27:10;;;;;;;0.00;0.00;;;20.60;99.90;;;;;;4931092;29;20023;-77
2022/06/07 03:29:37;;;;;;;0.00;0.00;;;20.60;99.90;;;;;;4913879;29;20080;-74
2022/06/07 03:32:04;;;;;;;0.00;0.00;;;20.60;99.90;;;;;;4930286;29;20031;-70
2022/06/07 03:34:30;;;;;;;0.00;0.00;;;20.60;99.90;;;;;;4933124;29;20783;-70
2022/06/07 03:36:55;;;;;;;0.00;0.00;;;20.50;99.90;;;;;;4932464;29;20031;-71
2022/06/07 03:39:21;;;;;;;0.00;0.00;;;20.50;99.90;;;;;;4922633;29;20039;-71
2022/06/07 03:41:47;;;;;;;0.00;0.00;;;20.50;99.90;;;;;;4912388;29;20020;-70
2022/06/07 03:44:13;;;;;;;0.00;0.00;;;20.40;99.90;;;;;;4928608;29;20048;-70
2022/06/07 03:46:42;;;;;;;0.00;0.00;;;20.50;99.90;;;;;;4930716;29;20036;-76
2022/06/07 03:49:09;;;;;;;0.00;0.00;;;20.40;99.90;;;;;;4921552;29;20027;-79
2022/06/07 03:51:35;;;;;;;0.00;0.00;;;20.40;99.90;;;;;;4926467;29;20121;-69
2022/06/07 03:54:02;;;;;;;0.00;0.00;;;20.30;99.90;;;;;;4928680;29;20658;-71
2022/06/07 03:56:28;;;;;;;0.00;0.00;;;20.30;99.90;;;;;;4930821;29;20047;-77
2022/06/07 03:58:54;;;;;;;0.00;0.00;;;20.30;99.90;;;;;;4933338;29;20028;-71
2022/06/07 04:01:23;;;;;;;0.00;0.00;;;20.30;99.90;;;;;;4908945;29;20031;-74
2022/06/07 04:03:51;;;;;;;0.00;0.00;;;20.20;99.90;;;;;;4927126;29;20052;-72
2022/06/07 04:06:16;;;;;;;0.00;0.00;;;20.20;99.90;;;;;;4931085;29;20035;-70
2022/06/07 04:08:42;;;;;;;0.00;0.00;;;20.20;99.90;;;;;;4929492;29;20287;-71
2022/06/07 04:11:11;;;;;;;0.00;0.00;;;20.20;99.90;;;;;;4910967;29;20096;-70
2022/06/07 04:13:37;;;;;;;0.00;0.00;;;20.20;99.90;;;;;;4926715;29;20016;-71
2022/06/07 04:16:08;;;;;;;0.00;0.00;;;20.20;99.90;;;;;;4910994;29;20352;-71
2022/06/07 04:18:33;;;;;;;0.00;0.00;;;20.20;99.90;;;;;;4910877;29;20032;-70
2022/06/07 04:21:00;;;;;;;0.00;0.00;;;20.20;99.90;;;;;;4932359;29;20035;-71
2022/06/07 04:23:26;;;;;;;0.00;0.00;;;20.20;99.90;;;;;;4915508;29;20087;-71
2022/06/07 04:25:52;;;;;;;0.00;0.00;;;20.20;99.90;;;;;;4914478;29;20302;-72
2022/06/07 04:28:18;;;;;;;0.00;0.00;;;20.20;99.90;;;;;;4931762;29;20076;-70
2022/06/07 04:30:46;;;;;;;0.00;0.00;;;20.20;99.90;;;;;;4933703;29;20099;-70
2022/06/07 04:33:13;;;;;;;0.00;0.00;;;20.20;99.90;;;;;;4930215;29;20035;-70
2022/06/07 04:35:42;;;;;;;0.00;0.00;;;20.30;99.90;;;;;;4925921;29;20036;-76
2022/06/07 04:38:08;;;;;;;0.00;0.00;;;20.30;99.90;;;;;;4930361;29;20315;-70
2022/06/07 04:40:34;;;;;;;0.00;0.00;;;20.30;99.90;;;;;;4912030;29;20087;-70
2022/06/07 04:42:59;;;;;;;0.00;0.00;;;20.30;99.90;;;;;;4931091;29;20228;-71
2022/06/07 04:45:25;;;;;;;0.00;0.00;;;20.30;99.90;;;;;;4912223;29;20020;-71
2022/06/07 04:47:50;;;;;;;0.00;0.00;;;20.30;99.90;;;;;;4928835;29;20036;-70
2022/06/07 04:50:18;;;;;;;0.00;0.00;;;20.30;99.90;;;;;;4913929;29;20210;-70
2022/06/07 04:52:45;;;;;;;0.00;0.00;;;20.30;99.90;;;;;;4928828;29;20039;-70
2022/06/07 04:55:12;;;;;;;0.00;0.00;;;20.30;99.90;;;;;;4929805;29;20023;-71
2022/06/07 04:57:38;;;;;;;0.00;0.00;;;20.30;99.90;;;;;;4922248;29;20223;-70
2022/06/07 05:00:05;;;;;;;0.00;0.00;;;20.30;99.90;;;;;;4911513;29;20087;-70
2022/06/07 05:02:31;;;;;;;0.00;0.00;;;20.30;99.90;;;;;;4926308;29;20016;-72
2022/06/07 05:04:56;;;;;;;0.00;0.00;;;20.30;99.90;;;;;;4936741;29;20060;-70
2022/06/07 05:07:22;;;;;;;0.00;0.00;;;20.40;99.90;;;;;;4931581;29;20023;-71
2022/06/07 05:09:48;;;;;;;0.00;0.00;;;20.40;99.90;;;;;;4939920;29;20027;-70
2022/06/07 05:12:15;;;;;;;0.00;0.00;;;20.40;99.90;;;;;;4937969;29;20302;-70
2022/06/07 05:14:44;;;;;;;0.00;0.00;;;20.40;99.90;;;;;;4929928;29;20023;-72
2022/06/07 05:17:10;;;;;;;0.00;0.00;;;20.40;99.90;;;;;;4935505;29;20222;-70
2022/06/07 05:19:35;;;;;;;0.00;0.00;;;20.40;99.90;;;;;;4946914;29;20030;-70
2022/06/07 05:22:02;;;;;;;0.00;0.00;;;20.40;99.90;;;;;;4941140;29;20027;-76
2022/06/07 05:24:28;;;;;;;0.00;0.00;;;20.50;99.90;;;;;;4948017;29;20084;-80
2022/06/07 05:26:59;;;;;;;0.00;0.00;;;20.40;99.90;;;;;;4946724;29;20089;-70
2022/06/07 05:29:28;;;;;;;0.00;0.00;;;20.50;99.90;;;;;;4946601;29;20033;-70
2022/06/07 05:31:54;;;;;;;0.00;0.00;;;20.60;99.90;;;;;;4948753;29;20072;-71
2022/06/07 05:34:20;;;;;;;0.00;0.00;;;20.70;99.90;;;;;;4946316;28;20023;-77
2022/06/07 05:36:46;;;;;;;0.00;0.00;;;20.70;99.90;;;;;;4945739;29;20039;-71
2022/06/07 05:39:24;;;;;;;0.00;0.00;;;20.70;99.90;;;;;;4949474;29;20026;-72
2022/06/07 05:41:50;;;;;;;0.00;0.00;;;20.80;99.90;;;;;;4946345;29;20149;-70
2022/06/07 05:44:16;;;;;;;0.00;0.00;;;20.80;99.90;;;;;;4946605;29;20035;-70
2022/06/07 05:46:42;;;;;;;0.00;0.00;;;20.80;99.90;;;;;;4939768;29;20023;-71
2022/06/07 05:49:10;;;;;;;0.00;0.00;;;20.90;99.90;;;;;;4945736;29;20111;-77
2022/06/07 05:51:36;;;;;;;0.00;0.00;;;20.90;99.90;;;;;;4933331;29;20228;-73
2022/06/07 05:54:02;;;;;;;0.00;0.00;;;20.90;99.90;;;;;;4947396;28;20031;-77
2022/06/07 05:56:28;;;;;;;0.00;0.00;;;21.00;99.90;;;;;;4949293;29;20038;-71
2022/06/07 05:58:54;;;;;;;0.00;0.00;;;21.00;99.90;;;;;;4931021;29;20219;-71
2022/06/07 06:01:19;;;;;;;0.00;0.00;;;21.10;99.90;;;;;;4948039;28;20225;-71
2022/06/07 06:03:45;;;;;;;0.00;0.00;;;21.10;99.90;;;;;;4941489;29;20104;-71
2022/06/07 06:06:12;;;;;;;0.00;0.00;;;21.30;99.90;;;;;;4929572;29;20024;-71
2022/06/07 06:11:25;;;;;;;0.00;0.00;;;21.70;99.90;;;;;;4935249;29;20215;-71
2022/06/07 06:13:51;;;;;;;0.00;0.00;;;22.20;99.90;;;;;;4916135;29;20019;-73
2022/06/07 06:16:20;;;;;;;0.00;0.00;;;22.80;99.90;;;;;;4922632;29;20035;-71
2022/06/07 06:18:54;;;;;;;0.00;0.00;;;23.40;99.90;;;;;;4930846;29;20049;-71
2022/06/07 06:21:23;;;;;;;0.00;0.00;;;24.00;99.90;;;;;;4925821;29;20039;-71
2022/06/07 06:23:49;;;;;;;0.00;0.00;;;24.50;99.90;;;;;;4913063;29;20132;-75
2022/06/07 06:26:16;;;;;;;0.00;0.00;;;25.00;99.50;;;;;;4932393;29;20338;-70
2022/06/07 06:28:42;;;;;;;0.00;0.00;;;25.30;97.70;;;;;;4928312;29;20303;-73
2022/06/07 06:31:11;;;;;;;0.00;0.00;;;25.50;97.40;;;;;;4916939;29;20043;-80
2022/06/07 06:33:38;;;;;;;0.00;0.00;;;25.70;96.70;;;;;;4921444;29;20091;-71
2022/06/07 06:36:06;;;;;;;0.00;0.00;;;26.00;96.20;;;;;;4933072;29;20083;-70
2022/06/07 06:38:32;;;;;;;0.00;0.00;;;26.20;95.40;;;;;;4914982;29;20036;-70
2022/06/07 06:40:59;;;;;;;0.00;0.00;;;26.30;94.60;;;;;;4931653;29;20398;-71
2022/06/07 06:43:25;;;;;;;0.00;0.00;;;26.30;94.40;;;;;;4916655;29;20019;-71
2022/06/07 06:45:50;;;;;;;0.00;0.00;;;26.50;94.30;;;;;;4929518;29;20046;-71
2022/06/07 06:48:17;;;;;;;0.00;0.00;;;26.60;94.30;;;;;;4921826;29;20028;-72
2022/06/07 06:50:43;;;;;;;0.00;0.00;;;26.70;93.80;;;;;;4926499;29;20035;-71
2022/06/07 06:53:09;;;;;;;0.00;0.00;;;26.90;93.30;;;;;;4934497;29;20094;-73
2022/06/07 06:55:35;;;;;;;0.00;0.00;;;27.40;93.40;;;;;;4912968;29;20024;-71
2022/06/07 06:58:01;;;;;;;0.00;0.00;;;27.80;92.00;;;;;;4928439;29;20035;-75
2022/06/07 07:00:28;;;;;;;0.00;0.00;;;27.90;91.50;;;;;;4931837;29;20036;-72
2022/06/07 07:02:54;;;;;;;0.00;0.00;;;27.60;90.30;;;;;;4913863;29;20042;-72
2022/06/07 07:05:20;;;;;;;0.00;0.00;;;27.60;91.00;;;;;;4916705;29;20051;-73
2022/06/07 07:07:49;;;;;;;0.00;0.00;;;27.50;91.20;;;;;;4931405;29;20031;-72
2022/06/07 07:10:14;;;;;;;0.00;0.00;;;27.70;90.90;;;;;;4913813;29;20039;-71
2022/06/07 07:12:40;;;;;;;0.00;0.00;;;27.60;90.90;;;;;;4930661;29;20082;-77
2022/06/07 07:15:11;;;;;;;0.00;0.00;;;27.50;90.80;;;;;;4915084;29;20063;-70
2022/06/07 07:17:37;;;;;;;0.00;0.00;;;27.50;90.90;;;;;;4932911;29;20036;-77
2022/06/07 07:20:04;;;;;;;0.00;0.00;;;27.50;90.90;;;;;;4929942;29;20095;-71
2022/06/07 07:22:29;;;;;;;0.00;0.00;;;27.50;90.40;;;;;;4929375;29;20087;-71
2022/06/07 07:24:55;;;;;;;0.00;0.00;;;27.50;90.10;;;;;;4930556;29;20016;-77
2022/06/07 07:27:21;;;;;;;0.00;0.00;;;27.50;90.50;;;;;;4931859;29;20092;-71
2022/06/07 07:29:47;;;;;;;0.00;0.00;;;27.40;90.00;;;;;;4921900;29;20322;-71
2022/06/07 07:32:12;;;;;;;0.00;0.00;;;27.50;90.60;;;;;;4913743;29;20052;-71
2022/06/07 07:34:38;;;;;;;0.00;0.00;;;27.50;89.90;;;;;;4929858;29;20031;-78
2022/06/07 07:37:04;;;;;;;0.00;0.00;;;27.50;90.40;;;;;;4927717;29;20330;-70
2022/06/07 07:39:30;;;;;;;0.00;0.00;;;27.50;90.40;;;;;;4929277;29;20186;-71
2022/06/07 07:41:56;;;;;;;0.00;0.00;;;27.50;90.20;;;;;;4932209;29;20070;-71
2022/06/07 07:44:23;;;;;;;0.00;0.00;;;27.40;89.80;;;;;;4913366;29;20273;-71
2022/06/07 07:46:55;;;;;;;0.00;0.00;;;27.40;90.30;;;;;;4914231;29;20076;-71
2022/06/07 07:49:22;;;;;;;0.00;0.00;;;27.40;90.50;;;;;;4926850;29;20326;-72
2022/06/07 07:51:50;;;;;;;0.00;0.00;;;27.40;90.10;;;;;;4930975;29;20028;-72
2022/06/07 07:54:18;;;;;;;0.00;0.00;;;27.40;90.50;;;;;;4914294;29;20036;-71
2022/06/07 07:56:44;;;;;;;0.00;0.00;;;27.40;90.10;;;;;;4929355;29;20103;-71
2022/06/07 07:59:12;;;;;;;0.00;0.00;;;27.40;89.70;;;;;;4932653;29;20031;-71
2022/06/07 08:01:39;;;;;;;0.00;0.00;;;27.50;90.30;;;;;;4910949;29;20032;-70
2022/06/07 08:04:06;;;;;;;0.00;0.00;;;27.50;90.20;;;;;;4925786;29;20055;-70
2022/06/07 08:06:32;;;;;;;0.00;0.00;;;27.60;89.60;;;;;;4934352;29;20176;-81
2022/06/07 08:09:01;;;;;;;0.00;0.00;;;27.70;89.80;;;;;;4944966;29;20783;-77
2022/06/07 08:11:34;;;;;;;0.00;0.00;;;27.80;90.10;;;;;;4950276;29;20064;-76
2022/06/07 08:14:01;;;;;;;0.00;0.00;;;27.90;90.20;;;;;;4929290;29;20061;-70
2022/06/07 08:16:27;;;;;;;0.00;0.00;;;28.00;90.00;;;;;;4932620;29;20015;-71
2022/06/07 08:18:53;;;;;;;0.00;0.00;;;28.10;88.90;;;;;;4949004;29;20039;-73
2022/06/07 08:21:22;;;;;;;0.00;0.00;;;28.20;87.60;;;;;;4933590;29;20032;-71
2022/06/07 08:23:53;;;;;;;0.00;0.00;;;28.40;88.20;;;;;;4932138;29;20149;-80
2022/06/07 08:26:19;;;;;;;0.00;0.00;;;28.60;86.80;;;;;;4930489;29;20062;-75
2022/06/07 08:28:45;;;;;;;0.00;0.00;;;28.70;87.30;;;;;;4934942;29;20027;-71
2022/06/07 08:31:14;;;;;;;0.00;0.00;;;28.60;82.70;;;;;;4932071;29;20034;-70
2022/06/07 08:39:11;;;;;;;0.00;0.00;;;27.40;82.20;;;;;;4951100;28;20225;-73
2022/06/07 08:41:50;;;;;;;0.00;0.00;;;27.40;81.80;;;;;;4930020;29;20023;-72
2022/06/07 08:44:28;;;;;;;0.00;0.00;;;27.40;81.10;;;;;;4946253;28;20064;-72
2022/06/07 08:47:00;;;;;;;0.00;0.00;;;27.20;81.50;;;;;;4945896;29;20082;-72
2022/06/07 08:49:26;;;;;;;0.00;0.00;;;27.20;81.30;;;;;;4940389;28;20046;-71
2022/06/07 08:52:15;;;;;;;0.00;0.00;;;27.00;81.10;;;;;;4940923;28;20298;-73
2022/06/07 08:54:42;;;;;;;0.00;0.00;;;27.20;81.20;;;;;;4926029;29;20026;-74
2022/06/07 08:57:24;;;;;;;0.00;0.00;;;27.20;80.40;;;;;;4927778;29;20031;-72
2022/06/07 08:59:55;;;;;;;0.00;0.00;;;27.20;81.10;;;;;;4930744;29;20196;-73
2022/06/07 09:02:46;;;;;;;0.00;0.00;;;27.50;81.70;;;;;;4938305;29;20031;-73
2022/06/07 09:05:15;;;;;;;0.00;0.00;;;27.90;78.00;;;;;;4925554;29;20082;-73
2022/06/07 09:07:43;;;;;;;0.00;0.00;;;28.00;77.10;;;;;;4929065;29;20083;-74
2022/06/07 09:13:07;;;;;;;0.00;0.00;;;28.00;75.90;;;;;;4930353;29;20046;-83
2022/06/07 09:15:35;;;;;;;0.00;0.00;;;28.00;75.90;;;;;;4914696;29;20030;-76
2022/06/07 09:18:04;;;;;;;0.00;0.00;;;28.00;76.00;;;;;;4910295;29;20031;-77
2022/06/07 09:20:39;;;;;;;0.00;0.00;;;28.20;75.80;;;;;;4913372;29;20200;-78
2022/06/07 09:23:14;;;;;;;0.00;0.00;;;28.70;76.50;;;;;;4924068;29;20024;-81
2022/06/07 09:25:46;;;;;;;0.00;0.00;;;29.30;73.00;;;;;;4907783;29;20024;-79
2022/06/07 09:28:20;;;;;;;0.00;0.00;;;29.50;71.80;;;;;;4908732;29;20051;-76
2022/06/07 09:30:55;;;;;;;0.00;0.00;;;29.40;71.00;;;;;;4916803;29;20016;-74
2022/06/07 09:33:25;;;;;;;0.00;0.00;;;29.70;71.30;;;;;;4927754;29;20050;-77
2022/06/07 09:35:54;;;;;;;0.00;0.00;;;30.20;70.10;;;;;;4907844;29;20019;-75
2022/06/07 09:38:37;;;;;;;0.00;0.00;;;30.80;69.00;;;;;;4928813;29;20215;-75
2022/06/07 09:41:36;;;;;;;0.00;0.00;;;31.60;67.20;;;;;;4918761;29;20026;-75
2022/06/07 09:43:52;;;;;;;0.00;0.00;;;32.50;65.60;;;;;;4930417;29;20099;-76
2022/06/07 09:46:27;;;;;;;0.00;0.00;;;33.30;63.90;;;;;;4930648;29;20300;-81
2022/06/07 09:48:53;;;;;;;0.00;0.00;;;33.90;64.50;;;;;;4912830;29;20049;-76
2022/06/07 09:51:24;;;;;;;0.00;0.00;;;34.60;61.10;;;;;;4911850;29;20092;-82
2022/06/07 09:54:17;;;;;;;0.00;0.00;;;35.20;60.50;;;;;;4932567;29;20095;-75
2022/06/07 09:56:49;;;;;;;0.00;0.00;;;36.30;59.60;;;;;;4914528;29;20083;-75
2022/06/07 09:59:40;;;;;;;0.00;0.00;;;36.90;55.60;;;;;;4921513;29;20218;-75
2022/06/07 10:02:36;;;;;;;0.00;0.00;;;36.60;55.30;;;;;;4929043;29;20315;-74
2022/06/07 10:05:19;;;;;;;0.00;0.00;;;36.20;55.80;;;;;;4906738;29;20048;-74
2022/06/07 10:08:00;;;;;;;0.00;0.00;;;36.40;55.20;;;;;;4928634;29;20024;-78
2022/06/07 10:10:33;;;;;;;0.00;0.00;;;36.80;54.20;;;;;;4930202;29;20262;-73
2022/06/07 10:13:24;;;;;;;0.00;0.00;;;37.40;54.20;;;;;;4913583;29;20028;-80
2022/06/07 10:16:14;;;;;;;0.00;0.00;;;38.20;53.60;;;;;;4933493;29;20015;-75
2022/06/07 10:19:02;;;;;;;0.00;0.00;;;39.50;52.60;;;;;;4913444;29;20036;-82
2022/06/07 10:21:28;;;;;;;0.00;0.00;;;39.70;52.10;;;;;;4938343;29;20064;-76
2022/06/07 10:24:34;;;;;;;0.00;0.00;;;37.80;50.90;;;;;;4932149;29;20028;-73
2022/06/07 10:27:11;;;;;;;0.00;0.00;;;35.90;53.70;;;;;;4929759;29;20504;-76
2022/06/07 10:29:56;;;;;;;0.00;0.00;;;34.40;55.80;;;;;;4917968;29;20026;-77
2022/06/07 10:32:40;;;;;;;0.00;0.00;;;33.10;58.70;;;;;;4928967;29;20210;-73
2022/06/07 10:35:41;;;;;;;0.00;0.00;;;32.50;61.00;;;;;;4930162;29;20267;-71
2022/06/07 10:38:40;;;;;;;0.00;0.00;;;32.00;62.40;;;;;;4938946;29;20024;-68
2022/06/07 10:41:32;;;;;;;0.00;0.00;;;31.90;62.70;;;;;;4946553;29;20039;-68
2022/06/07 10:44:20;;;;;;;0.00;0.00;;;31.70;64.90;;;;;;4925318;29;20030;-69
2022/06/07 10:46:47;;;;;;;0.00;0.00;;;31.80;63.40;;;;;;4926040;29;20031;-69
2022/06/07 10:49:22;;;;;;;;;;;31.60;64.10;;;;;;4929358;29;20020;-70
2022/06/07 10:54:48;;;;;;;0.00;0.00;;;33.10;65.00;;;;;;4927176;29;20131;-72
2022/06/07 10:57:29;;;;;;;0.00;0.00;;;35.00;60.80;;;;;;4912322;29;20289;-71
2022/06/07 10:59:59;;;;;;;0.00;0.00;;;37.00;57.10;;;;;;4911620;29;20066;-70
2022/06/07 11:02:35;;;;;;;0.00;0.00;;;38.80;55.00;;;;;;4929127;29;20028;-70
2022/06/07 11:10:46;;;;;;;0.00;0.00;;;38.00;51.80;;;;;;4928175;29;20070;-70
2022/06/07 11:13:21;;;;;;;0.00;0.00;;;36.60;52.50;;;;;;4928515;29;20020;-70
2022/06/07 11:15:59;;;;;;;0.00;0.00;;;35.30;55.10;;;;;;4911185;29;20027;-69
2022/06/07 11:18:26;;;;;;;0.00;0.00;;;34.20;56.30;;;;;;4911525;29;20036;-69
2022/06/07 11:21:01;;;;;;;0.00;0.00;;;33.30;57.20;;;;;;4928072;29;20024;-70
2022/06/07 11:23:32;;;;;;;0.00;0.00;;;32.30;58.50;;;;;;4928030;29;20051;-70
2022/06/07 11:26:00;;;;;;;0.00;0.00;;;31.60;60.50;;;;;;4911014;29;20306;-70
2022/06/07 11:28:42;;;;;;;0.00;0.00;;;31.00;61.30;;;;;;4928389;29;20087;-70
2022/06/07 11:31:39;;;;;;;0.00;0.00;;;30.50;62.30;;;;;;4928178;29;20143;-70
2022/06/07 11:34:13;;;;;;;0.00;0.00;;;29.70;63.30;;;;;;4928158;29;20028;-71
2022/06/07 11:36:42;;;;;;;0.00;0.00;;;29.00;65.30;;;;;;4928209;29;20026;-70
2022/06/07 11:39:28;;;;;;;0.00;0.00;;;28.60;66.30;;;;;;4927890;29;20080;-70
2022/06/07 11:42:14;;;;;;;0.00;0.00;;;28.20;67.60;;;;;;4927412;29;20042;-70
2022/06/07 11:44:42;;;;;;;0.00;0.00;;;28.00;68.70;;;;;;4901096;29;20028;-69
2022/06/07 11:47:11;;;;;;;0.00;0.00;;;27.90;69.50;;;;;;4927497;29;20065;-68
2022/06/07 11:49:41;;;;;;;0.00;0.00;;;27.80;69.10;;;;;;4910670;29;20047;-69
2022/06/07 11:52:13;;;;;;;0.00;0.00;;;27.70;69.60;;;;;;4910662;29;20200;-69
2022/06/07 11:54:45;;;;;;;0.00;0.00;;;27.60;70.10;;;;;;4927524;29;20020;-70
2022/06/07 11:57:32;;;;;;;0.00;0.00;;;27.40;69.50;;;;;;4910548;29;20337;-68
2022/06/07 11:59:57;;;;;;;0.00;0.00;;;27.00;70.80;;;;;;4910338;29;20091;-68
2022/06/07 12:02:26;;;;;;;0.00;0.00;;;26.70;72.00;;;;;;4927465;29;20024;-68
2022/06/07 12:05:10;;;;;;;0.00;0.00;;;26.50;72.90;;;;;;4922691;29;20076;-68
2022/06/07 12:07:51;;;;;;;0.00;0.00;;;26.40;74.60;;;;;;4927419;29;20024;-68
2022/06/07 12:10:17;;;;;;;0.00;0.00;;;26.10;75.80;;;;;;4926251;29;20028;-69
2022/06/07 12:12:53;;;;;;;0.00;0.00;;;25.90;76.90;;;;;;4926463;29;20099;-68
2022/06/07 12:15:21;;;;;;;0.00;0.00;;;25.70;77.70;;;;;;4927336;29;20020;-69
2022/06/07 12:17:55;;;;;;;0.00;0.00;;;25.50;78.20;;;;;;4926563;29;20323;-69
2022/06/07 12:20:40;;;;;;;0.00;0.00;;;25.30;80.30;;;;;;4927447;29;20334;-69
2022/06/07 12:23:23;;;;;;;0.00;0.00;;;25.10;82.60;;;;;;4927016;29;20092;-69
2022/06/07 12:26:06;;;;;;;0.00;0.00;;;24.90;84.00;;;;;;4927323;29;20031;-68
2022/06/07 12:28:34;;;;;;;0.00;0.00;;;24.80;85.40;;;;;;4926116;29;20326;-69
2022/06/07 12:31:12;;;;;;;0.00;0.00;;;24.70;86.10;;;;;;4926444;29;20028;-70
2022/06/07 12:33:38;;;;;;;0.00;0.00;;;24.70;87.30;;;;;;4926146;29;20042;-68
2022/06/07 12:36:34;;;;;;;0.00;0.00;;;24.50;90.00;;;;;;4926914;29;20323;-69
2022/06/07 12:39:13;;;;;;;0.00;0.00;;;24.50;89.70;;;;;;4914075;29;20151;-68
2022/06/07 12:41:52;;;;;;;0.00;0.00;;;24.40;90.50;;;;;;4926388;29;20031;-68
2022/06/07 12:44:33;;;;;;;0.00;0.00;;;24.30;90.90;;;;;;4927120;29;20019;-68
2022/06/07 12:47:01;;;;;;;0.00;0.00;;;24.20;90.90;;;;;;4926957;29;20028;-68
2022/06/07 12:49:26;;;;;;;;;;;24.00;91.60;;;;;;4926411;29;20024;-70
2022/06/07 12:51:58;;;;;;;0.00;0.00;;;24.10;92.30;;;;;;4925436;29;20131;-69
2022/06/07 12:54:24;;;;;;;0.00;0.00;;;24.00;92.50;;;;;;4926690;29;20331;-68
2022/06/07 12:56:53;;;;;;;0.00;0.00;;;23.90;93.10;;;;;;4926155;29;20308;-69
2022/06/07 12:59:36;;;;;;;0.00;0.00;;;23.90;94.00;;;;;;4925833;29;20047;-69
2022/06/07 13:02:18;;;;;;;0.00;0.00;;;23.80;94.50;;;;;;4926552;29;20016;-67
2022/06/07 13:04:48;;;;;;;0.00;0.00;;;23.70;95.10;;;;;;4941679;29;20048;-68
2022/06/07 13:07:24;;;;;;;0.00;0.00;;;23.70;95.20;;;;;;4945741;29;20322;-68
2022/06/07 13:09:58;;;;;;;0.00;0.00;;;23.70;96.10;;;;;;4928480;29;20031;-68
2022/06/07 13:12:31;;;;;;;0.00;0.00;;;23.70;96.20;;;;;;4928749;29;20085;-69
2022/06/07 13:14:59;;;;;;;0.00;0.00;;;23.70;96.70;;;;;;4928071;29;20043;-68
2022/06/07 13:17:31;;;;;;;0.00;0.00;;;23.70;96.50;;;;;;4944934;29;20065;-69
2022/06/07 13:19:57;;;;;;;0.00;0.00;;;23.70;96.50;;;;;;4945373;29;20086;-69
2022/06/07 13:22:25;;;;;;;0.00;0.00;;;23.70;96.70;;;;;;4928291;29;20115;-68
2022/06/07 13:25:11;;;;;;;0.00;0.00;;;23.50;96.30;;;;;;4944835;29;20023;-69
2022/06/07 13:27:52;;;;;;;0.00;0.00;;;23.50;97.10;;;;;;4928390;29;20102;-69
2022/06/07 13:30:21;;;;;;;0.00;0.00;;;23.50;97.10;;;;;;4945539;29;20184;-68